Time;durP1;ratioP1;P1;durP2;ratioP2;P2;SDS_P1;SDS_P2;PMS_P1;PMS_P2;Temp;Humidity;BMP_temperature;BMP_pressure;BME280_temperature;BME280_humidity;BME280_pressure;Samples;Min_cycle;Max_cycle;Signal;HPM_P1;HPM_P2
2024/03/12 03:05:40;;;;;;;5.07;2.72;;;6.60;93.20;;;;;;4248985;23;20135;-79
2024/03/12 03:07:42;;;;;;;;;;;6.60;93.10;;;;;;4086658;29;20516;-80
2024/03/12 03:09:44;;;;;;;4.90;2.60;;;6.50;93.10;;;;;;4099940;29;19926;-79
2024/03/12 03:11:45;;;;;;;4.80;2.60;;;6.50;93.20;;;;;;4100523;28;20091;-82
2024/03/12 03:13:47;;;;;;;5.30;2.97;;;6.40;93.20;;;;;;4102459;29;20051;-81
2024/03/12 03:15:49;;;;;;;5.88;3.05;;;6.40;93.30;;;;;;4100951;29;20051;-81
2024/03/12 03:17:51;;;;;;;5.97;2.67;;;6.40;93.40;;;;;;4099931;29;20460;-81
2024/03/12 03:19:52;;;;;;;6.90;3.15;;;6.40;93.40;;;;;;4099877;29;20477;-82
2024/03/12 03:21:55;;;;;;;4.95;2.63;;;6.40;93.40;;;;;;4098750;29;20056;-84
2024/03/12 03:23:58;;;;;;;6.07;2.90;;;6.40;93.40;;;;;;4100352;29;20055;-83
2024/03/12 03:26:00;;;;;;;5.40;2.67;;;6.30;93.40;;;;;;4100039;29;20063;-81
2024/03/12 03:28:02;;;;;;;4.68;2.60;;;6.30;93.40;;;;;;4099606;29;20083;-81
2024/03/12 03:30:06;;;;;;;4.78;2.80;;;6.40;93.40;;;;;;4099745;29;20440;-80
2024/03/12 03:32:09;;;;;;;5.72;2.70;;;6.30;93.70;;;;;;4088857;29;20056;-82
2024/03/12 03:34:11;;;;;;;5.25;2.80;;;6.40;93.50;;;;;;4084045;29;20485;-80
2024/03/12 03:36:14;;;;;;;5.15;2.90;;;6.40;93.40;;;;;;4088583;29;20551;-82
2024/03/12 03:38:17;;;;;;;5.97;2.78;;;6.40;93.40;;;;;;4099649;29;20079;-82
2024/03/12 03:40:23;;;;;;;4.93;2.80;;;6.40;93.30;;;;;;4102161;29;20055;-82
2024/03/12 03:42:25;;;;;;;4.68;2.60;;;6.40;93.40;;;;;;4100036;29;20047;-81
2024/03/12 03:44:28;;;;;;;4.78;2.70;;;6.40;93.30;;;;;;4099741;29;20074;-79
2024/03/12 03:46:30;;;;;;;4.88;2.60;;;6.40;93.20;;;;;;4100046;29;20051;-80
2024/03/12 03:48:32;;;;;;;4.50;2.45;;;6.50;93.00;;;;;;4100958;29;20047;-79
2024/03/12 03:50:33;;;;;;;6.65;2.30;;;6.50;92.90;;;;;;4100064;29;20446;-81
2024/03/12 03:52:35;;;;;;;4.57;2.50;;;6.50;92.80;;;;;;4099615;29;20110;-81
2024/03/12 03:54:40;;;;;;;5.95;2.72;;;6.60;92.70;;;;;;4100399;28;20063;-81
2024/03/12 03:56:45;;;;;;;4.50;2.58;;;6.60;92.70;;;;;;4091613;29;20056;-80
2024/03/12 03:58:47;;;;;;;4.55;2.60;;;6.60;92.90;;;;;;4106432;29;20047;-80
2024/03/12 04:00:50;;;;;;;7.15;2.55;;;6.70;92.60;;;;;;4083874;29;20050;-80
2024/03/12 04:02:51;;;;;;;4.88;2.63;;;6.60;92.60;;;;;;4086578;29;20382;-82
2024/03/12 04:04:53;;;;;;;4.57;2.50;;;6.50;92.70;;;;;;4096149;29;20063;-81
2024/03/12 04:06:55;;;;;;;4.93;2.63;;;6.60;92.70;;;;;;4102627;29;20758;-80
2024/03/12 04:08:57;;;;;;;5.05;2.38;;;6.60;92.60;;;;;;4100523;29;20061;-81
2024/03/12 04:11:00;;;;;;;5.00;2.53;;;6.60;92.60;;;;;;4086720;29;20060;-79
2024/03/12 04:13:04;;;;;;;5.05;2.65;;;6.60;92.50;;;;;;4086515;29;20048;-79
2024/03/12 04:15:06;;;;;;;4.40;2.47;;;6.70;92.40;;;;;;4086614;29;20052;-81
2024/03/12 04:17:08;;;;;;;5.63;2.40;;;6.70;92.20;;;;;;4086427;29;20435;-81
2024/03/12 04:19:10;;;;;;;4.68;2.53;;;6.80;92.20;;;;;;4099318;29;20615;-80
2024/03/12 04:21:12;;;;;;;5.80;2.42;;;6.80;92.40;;;;;;4102267;29;20051;-78
2024/03/12 04:23:14;;;;;;;6.22;2.70;;;6.70;92.30;;;;;;4102490;28;20074;-80
2024/03/12 04:25:15;;;;;;;5.35;2.67;;;6.60;92.30;;;;;;4102349;29;20056;-81
2024/03/12 04:27:18;;;;;;;4.28;2.30;;;6.60;92.50;;;;;;4102078;29;20087;-81
2024/03/12 04:29:20;;;;;;;4.68;2.58;;;6.60;92.50;;;;;;4102047;29;20070;-83
2024/03/12 04:31:23;;;;;;;4.32;2.40;;;6.60;92.50;;;;;;4101951;28;20048;-80
2024/03/12 04:33:24;;;;;;;4.13;2.40;;;6.60;92.50;;;;;;4088688;29;20044;-78
2024/03/12 04:35:27;;;;;;;4.75;2.40;;;6.70;92.80;;;;;;4086208;29;20060;-81
2024/03/12 04:37:31;;;;;;;5.65;2.60;;;6.70;92.40;;;;;;4085336;29;20067;-80
2024/03/12 04:39:33;;;;;;;5.25;2.60;;;6.70;92.50;;;;;;4101438;29;20047;-79
2024/03/12 04:41:36;;;;;;;4.38;2.22;;;6.70;92.60;;;;;;4101744;29;20055;-77
2024/03/12 04:43:41;;;;;;;4.93;2.58;;;6.70;92.50;;;;;;4100832;28;20051;-80
2024/03/12 04:45:43;;;;;;;4.97;2.50;;;6.70;92.40;;;;;;4102094;28;20055;-78
2024/03/12 04:47:45;;;;;;;5.38;2.53;;;6.70;92.30;;;;;;4102023;29;20378;-79
2024/03/12 04:49:47;;;;;;;4.90;2.35;;;6.80;92.40;;;;;;4105866;29;20118;-77
2024/03/12 04:51:50;;;;;;;5.20;2.65;;;6.70;92.40;;;;;;4105980;29;20058;-79
2024/03/12 04:53:52;;;;;;;4.63;2.53;;;6.70;92.40;;;;;;4102687;29;20051;-78
2024/03/12 04:55:54;;;;;;;6.32;2.58;;;6.70;92.40;;;;;;4101640;29;20055;-80
2024/03/12 04:57:56;;;;;;;4.95;2.80;;;6.70;92.50;;;;;;4101349;29;20436;-84
2024/03/12 04:59:59;;;;;;;6.03;2.75;;;6.80;92.40;;;;;;4092389;29;20099;-81
2024/03/12 05:02:01;;;;;;;5.90;3.53;;;6.80;92.30;;;;;;4085041;29;20107;-84
2024/03/12 05:04:02;;;;;;;6.55;3.30;;;6.90;92.40;;;;;;4085595;29;20064;-83
2024/03/12 05:06:05;;;;;;;5.75;2.80;;;6.90;92.20;;;;;;4085869;29;20051;-83
2024/03/12 05:08:08;;;;;;;6.80;2.97;;;6.90;92.20;;;;;;4091192;29;20054;-83
2024/03/12 05:10:11;;;;;;;6.00;3.10;;;7.00;92.10;;;;;;4102089;28;20555;-83
2024/03/12 05:12:12;;;;;;;6.15;2.72;;;7.10;91.90;;;;;;4101690;28;20069;-81
2024/03/12 05:14:13;;;;;;;5.78;2.78;;;7.00;91.90;;;;;;4101230;29;20058;-82
2024/03/12 05:16:17;;;;;;;4.72;2.63;;;7.10;91.80;;;;;;4100965;29;20138;-79
2024/03/12 05:18:19;;;;;;;4.80;2.47;;;7.00;91.80;;;;;;4102709;29;20043;-85
2024/03/12 05:20:23;;;;;;;5.07;2.50;;;7.10;91.70;;;;;;4102404;29;20055;-85
2024/03/12 05:22:24;;;;;;;5.00;2.58;;;7.10;91.70;;;;;;4102609;29;20131;-84
2024/03/12 05:24:29;;;;;;;5.75;2.60;;;7.10;91.60;;;;;;4102508;29;20051;-84
2024/03/12 05:26:32;;;;;;;5.10;2.42;;;7.10;91.60;;;;;;4102461;29;20092;-85
2024/03/12 05:28:33;;;;;;;4.90;2.33;;;7.00;91.60;;;;;;4089406;29;20099;-82
2024/03/12 05:30:37;;;;;;;5.25;2.45;;;7.00;91.60;;;;;;4086307;29;20051;-85
2024/03/12 05:32:43;;;;;;;4.38;2.17;;;7.00;91.70;;;;;;4086751;29;20059;-83
2024/03/12 05:34:47;;;;;;;4.95;2.30;;;7.00;91.60;;;;;;4074292;29;20092;-85
2024/03/12 05:36:50;;;;;;;4.43;2.10;;;7.00;91.50;;;;;;4070515;29;20108;-83
2024/03/12 05:38:55;;;;;;;6.45;2.25;;;7.00;91.50;;;;;;4070756;29;20148;-85
2024/03/12 05:41:14;;;;;;;4.75;2.30;;;7.00;91.60;;;;;;4075554;29;20429;-84
2024/03/12 05:50:16;;;;;;;4.38;1.90;;;7.10;91.40;;;;;;4083036;29;20401;-83
2024/03/12 05:52:19;;;;;;;4.63;2.17;;;7.10;91.40;;;;;;4085776;29;20107;-83
2024/03/12 05:54:20;;;;;;;6.05;1.98;;;7.10;91.30;;;;;;4085666;29;20118;-83
2024/03/12 05:56:23;;;;;;;4.75;2.00;;;7.20;91.30;;;;;;4085771;29;20556;-83
2024/03/12 05:58:25;;;;;;;3.85;2.10;;;7.20;91.50;;;;;;4085267;29;20085;-83
2024/03/12 06:00:27;;;;;;;5.60;2.13;;;7.20;91.60;;;;;;4084254;29;22280;-82
2024/03/12 06:02:30;;;;;;;4.30;2.60;;;7.10;91.80;;;;;;4099825;29;20055;-83
2024/03/12 06:04:33;;;;;;;4.20;2.03;;;7.10;91.90;;;;;;4085047;29;20389;-84
2024/03/12 06:06:35;;;;;;;5.22;2.38;;;7.00;91.90;;;;;;4085451;29;20052;-83
2024/03/12 06:08:37;;;;;;;5.47;2.17;;;6.90;92.20;;;;;;4085278;29;20086;-83
2024/03/12 06:10:39;;;;;;;4.82;2.30;;;6.90;92.40;;;;;;4084854;29;20107;-82
2024/03/12 06:12:41;;;;;;;4.30;2.08;;;6.90;92.30;;;;;;4084970;29;20048;-81
2024/03/12 06:14:43;;;;;;;4.65;2.30;;;7.00;92.20;;;;;;4078716;29;20048;-82
2024/03/12 06:16:46;;;;;;;4.80;2.15;;;7.00;92.00;;;;;;4069125;29;20084;-83
2024/03/12 06:18:48;;;;;;;5.45;2.30;;;7.10;91.90;;;;;;4069702;29;20087;-83
2024/03/12 06:20:52;;;;;;;9.80;2.45;;;7.10;91.80;;;;;;4068251;29;20059;-83
2024/03/12 06:22:54;;;;;;;4.03;2.03;;;7.10;91.70;;;;;;4091431;29;20420;-82
2024/03/12 06:24:56;;;;;;;4.60;2.25;;;7.10;91.70;;;;;;4097920;28;20055;-81
2024/03/12 06:26:57;;;;;;;4.65;2.10;;;7.10;91.60;;;;;;4084603;29;20099;-83
2024/03/12 06:28:59;;;;;;;4.22;2.10;;;7.10;91.60;;;;;;4084745;29;20103;-83
2024/03/12 06:31:03;;;;;;;4.70;2.00;;;7.00;91.70;;;;;;4083683;29;20059;-83
2024/03/12 06:33:07;;;;;;;4.68;2.42;;;7.00;91.70;;;;;;4088510;29;20066;-81
2024/03/12 06:35:08;;;;;;;5.72;2.10;;;7.00;91.70;;;;;;4089186;29;20055;-84
2024/03/12 06:37:12;;;;;;;6.53;2.20;;;7.00;91.70;;;;;;4088390;29;20047;-81
2024/03/12 06:39:17;;;;;;;4.95;2.10;;;7.00;91.80;;;;;;4084240;29;20474;-83
2024/03/12 06:41:20;;;;;;;4.63;1.80;;;7.00;91.80;;;;;;4083387;29;20094;-83
2024/03/12 06:43:22;;;;;;;5.07;2.13;;;7.10;91.80;;;;;;4084513;29;20409;-84
2024/03/12 06:45:23;;;;;;;5.25;2.30;;;7.10;91.80;;;;;;4084425;29;20416;-83
2024/03/12 06:47:25;;;;;;;5.35;2.00;;;7.10;91.80;;;;;;4083489;29;20052;-81
2024/03/12 06:49:27;;;;;;;5.07;2.30;;;7.10;91.70;;;;;;4082465;29;20101;-83
2024/03/12 06:51:32;;;;;;;4.32;2.00;;;7.20;91.80;;;;;;4083477;29;20059;-82
2024/03/12 06:53:35;;;;;;;4.97;2.25;;;7.20;91.70;;;;;;4083750;29;20058;-83
2024/03/12 06:55:38;;;;;;;4.72;2.10;;;7.30;91.70;;;;;;4083733;29;20056;-82
2024/03/12 06:57:47;;;;;;;5.13;2.10;;;7.30;91.70;;;;;;4081664;29;20063;-83
2024/03/12 06:59:49;;;;;;;5.30;1.98;;;7.30;91.90;;;;;;4083398;29;20052;-83
2024/03/12 07:01:53;;;;;;;4.63;2.22;;;7.30;91.80;;;;;;4083263;29;20056;-83
2024/03/12 07:03:57;;;;;;;5.80;2.25;;;7.30;91.90;;;;;;4082235;29;20059;-82
2024/03/12 07:05:58;;;;;;;6.13;2.33;;;7.30;91.90;;;;;;4083104;29;20070;-84
2024/03/12 07:08:00;;;;;;;5.13;2.45;;;7.30;91.80;;;;;;4083172;29;20400;-81
2024/03/12 07:10:05;;;;;;;4.15;2.28;;;7.30;91.90;;;;;;4082393;29;20489;-81
2024/03/12 07:12:08;;;;;;;5.15;2.20;;;7.30;92.20;;;;;;4082760;29;20055;-82
2024/03/12 07:14:23;;;;;;;5.10;2.10;;;7.40;91.90;;;;;;4083247;29;20123;-81
2024/03/12 07:16:24;;;;;;;5.57;2.60;;;7.30;91.90;;;;;;4083311;29;20044;-81
2024/03/12 07:18:28;;;;;;;4.80;2.30;;;7.30;92.00;;;;;;4082825;29;20848;-81
2024/03/12 07:20:31;;;;;;;5.53;2.22;;;7.40;92.10;;;;;;4083296;29;20062;-80
2024/03/12 07:22:35;;;;;;;4.75;2.38;;;7.30;92.10;;;;;;4083090;29;20052;-82
2024/03/12 07:24:38;;;;;;;6.00;2.42;;;7.30;92.20;;;;;;4082721;29;20150;-81
2024/03/12 07:26:43;;;;;;;5.03;2.50;;;7.40;92.10;;;;;;4084871;29;20056;-81
2024/03/12 07:28:45;;;;;;;4.53;2.30;;;7.40;92.10;;;;;;4082364;29;20052;-79
2024/03/12 07:30:46;;;;;;;5.53;2.40;;;7.50;92.20;;;;;;4082753;29;20512;-83
2024/03/12 07:32:48;;;;;;;4.50;2.13;;;7.50;92.10;;;;;;4082869;29;20052;-83
2024/03/12 07:34:50;;;;;;;5.82;2.40;;;7.50;92.00;;;;;;4082848;29;20473;-84
2024/03/12 07:36:52;;;;;;;7.38;2.63;;;7.50;92.00;;;;;;4083335;29;20086;-82
2024/03/12 07:38:53;;;;;;;6.45;2.38;;;7.60;91.90;;;;;;4084380;29;20313;-84
2024/03/12 07:40:56;;;;;;;6.75;2.70;;;7.60;91.90;;;;;;4088950;29;20058;-81
2024/03/12 07:42:59;;;;;;;4.97;2.60;;;7.60;91.90;;;;;;4085311;29;20103;-83
2024/03/12 07:45:01;;;;;;;5.15;2.10;;;7.70;91.70;;;;;;4085275;29;20139;-83
2024/03/12 07:47:04;;;;;;;14.98;6.07;;;7.70;91.60;;;;;;4085325;29;20055;-82
2024/03/12 07:49:05;;;;;;;5.70;2.70;;;7.80;91.70;;;;;;4085553;29;20421;-81
2024/03/12 07:51:09;;;;;;;5.57;2.30;;;7.80;91.40;;;;;;4086281;29;20072;-82
2024/03/12 07:53:11;;;;;;;5.40;2.30;;;7.90;91.40;;;;;;4085922;29;20052;-83
2024/03/12 07:55:13;;;;;;;4.00;2.13;;;7.90;91.30;;;;;;4087174;29;20052;-84
2024/03/12 07:57:16;;;;;;;4.20;2.15;;;7.90;91.40;;;;;;4088070;29;20413;-83
2024/03/12 07:59:22;;;;;;;4.47;2.20;;;7.90;91.40;;;;;;4085910;29;20056;-83
2024/03/12 08:01:26;;;;;;;6.05;2.20;;;7.90;91.30;;;;;;4085700;29;20047;-81
2024/03/12 08:03:28;;;;;;;5.65;2.10;;;8.00;91.40;;;;;;4085510;29;20066;-82
2024/03/12 08:05:30;;;;;;;5.25;2.33;;;8.00;91.30;;;;;;4084870;29;20111;-83
2024/03/12 08:07:32;;;;;;;5.57;2.20;;;8.00;91.40;;;;;;4084323;29;20110;-80
2024/03/12 08:09:34;;;;;;;5.75;2.20;;;8.00;91.40;;;;;;4085823;29;20059;-83
2024/03/12 08:11:36;;;;;;;5.97;2.30;;;8.00;91.40;;;;;;4085826;29;20103;-83
2024/03/12 08:13:38;;;;;;;4.63;2.30;;;8.00;91.40;;;;;;4085804;29;20056;-83
2024/03/12 08:15:42;;;;;;;5.95;2.35;;;8.10;91.60;;;;;;4085278;29;20087;-83
2024/03/12 08:17:43;;;;;;;4.43;2.17;;;8.10;91.60;;;;;;4085216;29;20060;-82
2024/03/12 08:19:47;;;;;;;7.50;2.50;;;8.10;91.60;;;;;;4084776;29;20051;-81
2024/03/12 08:21:51;;;;;;;5.70;2.38;;;8.00;91.50;;;;;;4084593;29;20052;-82
2024/03/12 08:23:56;;;;;;;5.75;2.00;;;8.00;91.90;;;;;;4084738;29;20047;-82
2024/03/12 08:25:58;;;;;;;5.88;2.63;;;8.00;91.90;;;;;;4085028;29;20103;-83
2024/03/12 08:28:00;;;;;;;5.00;2.10;;;8.00;92.00;;;;;;4085173;29;20115;-80
2024/03/12 08:30:02;;;;;;;4.78;2.08;;;8.00;91.90;;;;;;4084941;29;20218;-82
2024/03/12 08:32:06;;;;;;;7.55;3.03;;;8.00;92.00;;;;;;4085151;29;20047;-82
2024/03/12 08:34:09;;;;;;;5.90;2.05;;;8.00;92.20;;;;;;4084503;29;20067;-81
2024/03/12 08:36:13;;;;;;;5.45;2.10;;;8.00;92.00;;;;;;4085356;29;20131;-79
2024/03/12 08:38:15;;;;;;;4.47;1.77;;;8.00;92.10;;;;;;4069774;29;20391;-82
2024/03/12 08:40:17;;;;;;;3.88;2.08;;;8.00;92.20;;;;;;4067214;29;20059;-81
2024/03/12 08:42:19;;;;;;;5.07;2.15;;;8.10;92.20;;;;;;4069282;29;20126;-81
2024/03/12 08:44:21;;;;;;;4.85;2.13;;;8.00;92.30;;;;;;4068926;29;20091;-83
2024/03/12 08:46:23;;;;;;;3.85;1.92;;;8.00;92.40;;;;;;4068532;29;20084;-81
2024/03/12 08:48:26;;;;;;;5.53;2.25;;;8.10;92.30;;;;;;4068833;29;20084;-82
2024/03/12 08:50:28;;;;;;;4.95;1.90;;;8.00;92.40;;;;;;4069250;29;20473;-81
2024/03/12 08:52:30;;;;;;;4.63;2.00;;;8.00;92.50;;;;;;4069214;29;20044;-82
2024/03/12 08:54:31;;;;;;;4.78;2.20;;;8.00;92.90;;;;;;4068184;29;20060;-82
2024/03/12 08:56:36;;;;;;;4.18;2.08;;;8.00;93.30;;;;;;4068293;29;20119;-82
2024/03/12 08:58:38;;;;;;;3.83;1.88;;;7.90;93.70;;;;;;4075301;29;20163;-81
2024/03/12 09:00:41;;;;;;;3.75;1.80;;;7.90;94.40;;;;;;4085111;29;20048;-80
2024/03/12 09:02:43;;;;;;;5.53;1.70;;;7.80;94.80;;;;;;4084354;29;20079;-81
2024/03/12 09:04:45;;;;;;;4.40;1.50;;;7.70;94.60;;;;;;4083940;29;20055;-83
2024/03/12 09:06:47;;;;;;;3.92;1.60;;;7.80;94.80;;;;;;4084157;29;20052;-83
2024/03/12 09:08:50;;;;;;;3.30;1.50;;;7.80;95.00;;;;;;4083714;29;20051;-83
2024/03/12 09:10:53;;;;;;;4.07;1.33;;;7.90;94.80;;;;;;4084600;29;20598;-83
2024/03/12 09:12:55;;;;;;;2.80;1.52;;;7.90;94.90;;;;;;4084363;29;20493;-83
2024/03/12 09:14:57;;;;;;;3.80;1.40;;;8.00;94.90;;;;;;4084102;29;20107;-82
2024/03/12 09:17:00;;;;;;;3.47;1.60;;;8.00;94.90;;;;;;4083864;29;20122;-82
2024/03/12 09:19:02;;;;;;;3.72;1.40;;;8.00;94.70;;;;;;4084094;29;20127;-82
2024/03/12 09:21:09;;;;;;;2.88;1.17;;;8.00;94.80;;;;;;4083996;29;20429;-81
2024/03/12 09:23:11;;;;;;;4.68;1.25;;;8.00;94.60;;;;;;4084078;29;20134;-82
2024/03/12 09:25:11;;;;;;;2.58;1.02;;;8.00;94.70;;;;;;4083219;29;20489;-82
2024/03/12 09:27:13;;;;;;;2.75;1.10;;;8.00;94.60;;;;;;4082828;29;20769;-82
2024/03/12 09:29:16;;;;;;;3.83;1.42;;;8.10;94.40;;;;;;4083996;29;20107;-82
2024/03/12 09:31:18;;;;;;;4.63;2.25;;;8.10;94.10;;;;;;4084552;29;20422;-82
2024/03/12 09:33:19;;;;;;;3.33;1.42;;;8.10;94.40;;;;;;4084858;29;20146;-82
2024/03/12 09:35:22;;;;;;;2.67;1.10;;;8.20;94.10;;;;;;4084644;29;20048;-84
2024/03/12 09:37:27;;;;;;;2.90;1.05;;;8.20;93.90;;;;;;4083857;29;20056;-83
2024/03/12 09:39:30;;;;;;;3.88;1.25;;;8.10;94.20;;;;;;4081152;29;20401;-82
2024/03/12 09:41:32;;;;;;;2.83;1.10;;;8.30;94.20;;;;;;4083572;29;20059;-81
2024/03/12 09:43:37;;;;;;;2.78;1.10;;;8.30;94.00;;;;;;4083763;29;20083;-79
2024/03/12 09:45:39;;;;;;;2.95;1.27;;;8.30;93.70;;;;;;4083789;29;20405;-82
2024/03/12 09:47:44;;;;;;;2.42;1.10;;;8.30;93.40;;;;;;4083222;29;20047;-81
2024/03/12 09:49:46;;;;;;;3.13;1.30;;;8.40;93.50;;;;;;4083706;29;20055;-79
2024/03/12 09:51:48;;;;;;;5.28;1.50;;;8.50;93.40;;;;;;4084444;29;20102;-80
2024/03/12 09:53:51;;;;;;;3.95;1.40;;;8.50;93.20;;;;;;4083840;29;20058;-80
2024/03/12 09:55:54;;;;;;;3.33;1.60;;;8.50;93.30;;;;;;4084198;29;20056;-82
2024/03/12 09:57:56;;;;;;;3.88;1.70;;;8.50;93.30;;;;;;4083729;29;20059;-81
2024/03/12 09:59:58;;;;;;;4.22;1.80;;;8.60;93.20;;;;;;4082705;29;20051;-80
2024/03/12 10:02:01;;;;;;;3.63;1.73;;;8.60;93.30;;;;;;4083339;29;20052;-79
2024/03/12 10:04:03;;;;;;;4.18;1.67;;;8.70;93.20;;;;;;4083200;29;20486;-79
2024/03/12 10:06:06;;;;;;;3.88;1.90;;;8.70;93.00;;;;;;4083563;29;20062;-79
2024/03/12 10:08:16;;;;;;;4.47;2.00;;;8.70;93.10;;;;;;4083732;29;20138;-78
2024/03/12 10:10:18;;;;;;;4.03;1.80;;;8.70;92.80;;;;;;4081786;29;20063;-80
2024/03/12 10:12:21;;;;;;;4.47;2.15;;;8.70;92.80;;;;;;4083575;29;20059;-82
2024/03/12 10:14:24;;;;;;;4.75;2.20;;;8.70;93.00;;;;;;4083999;29;20059;-80
2024/03/12 10:16:25;;;;;;;4.75;2.15;;;8.70;92.80;;;;;;4085776;29;20119;-81
2024/03/12 10:18:29;;;;;;;4.90;2.38;;;8.70;93.10;;;;;;4087813;29;20055;-81
2024/03/12 10:20:31;;;;;;;3.30;1.83;;;8.70;92.90;;;;;;4085455;29;20324;-82
2024/03/12 10:22:33;;;;;;;5.97;2.00;;;8.70;92.80;;;;;;4085560;29;20051;-81
2024/03/12 10:24:36;;;;;;;4.25;2.10;;;8.80;92.70;;;;;;4083555;29;20099;-79
2024/03/12 10:26:40;;;;;;;4.20;2.10;;;8.90;92.80;;;;;;4084017;29;20065;-79
2024/03/12 10:28:44;;;;;;;3.97;2.13;;;9.00;92.60;;;;;;4084180;29;20066;-80
2024/03/12 10:30:45;;;;;;;5.68;2.47;;;9.00;92.60;;;;;;4084305;29;20157;-81
2024/03/12 10:32:47;;;;;;;5.80;2.72;;;9.00;92.50;;;;;;4083685;29;20055;-79
2024/03/12 10:34:49;;;;;;;6.13;2.83;;;9.00;92.10;;;;;;4082917;29;20051;-81
2024/03/12 10:36:51;;;;;;;4.93;2.50;;;9.00;92.20;;;;;;4083135;29;20501;-81
2024/03/12 10:38:54;;;;;;;5.65;2.70;;;8.90;92.00;;;;;;4080114;29;20146;-81
2024/03/12 10:40:56;;;;;;;6.80;3.15;;;8.90;92.10;;;;;;4083301;29;20114;-82
2024/03/12 10:43:01;;;;;;;5.65;3.00;;;8.90;92.00;;;;;;4084994;29;20052;-79
2024/03/12 10:45:05;;;;;;;6.35;3.28;;;8.90;92.00;;;;;;4083992;29;20511;-82
2024/03/12 10:47:07;;;;;;;7.35;3.58;;;8.90;92.10;;;;;;4083576;29;20087;-79
2024/03/12 10:49:12;;;;;;;7.30;3.42;;;8.90;92.20;;;;;;4083577;29;20098;-81
2024/03/12 10:51:15;;;;;;;6.85;3.42;;;8.90;92.20;;;;;;4083893;29;20068;-80
2024/03/12 10:53:18;;;;;;;7.60;3.88;;;8.80;91.80;;;;;;4083274;29;20052;-80
2024/03/12 10:55:21;;;;;;;7.22;3.42;;;8.80;91.90;;;;;;4082814;29;20154;-79
2024/03/12 10:57:24;;;;;;;6.90;3.30;;;8.80;91.80;;;;;;4082681;29;20060;-81
2024/03/12 10:59:31;;;;;;;7.28;3.40;;;8.70;91.80;;;;;;4083025;29;20063;-82
2024/03/12 11:01:33;;;;;;;8.63;4.00;;;8.80;92.00;;;;;;4082896;29;20142;-80
2024/03/12 11:03:36;;;;;;;7.38;3.60;;;8.80;91.70;;;;;;4082611;29;20071;-80
2024/03/12 11:05:38;;;;;;;7.20;3.42;;;8.80;92.00;;;;;;4082590;29;20059;-80
2024/03/12 11:07:43;;;;;;;7.70;3.30;;;8.80;92.00;;;;;;4082817;29;20412;-79
2024/03/12 11:09:45;;;;;;;6.22;3.17;;;8.80;92.00;;;;;;4082950;29;20051;-82
2024/03/12 11:11:49;;;;;;;7.60;3.65;;;8.90;92.00;;;;;;4086318;29;20103;-82
2024/03/12 11:13:53;;;;;;;8.23;3.60;;;8.90;92.00;;;;;;4086374;29;20142;-81
2024/03/12 11:16:00;;;;;;;7.35;3.42;;;8.90;91.90;;;;;;4086013;29;20103;-83
2024/03/12 11:18:05;;;;;;;9.32;3.63;;;8.90;92.00;;;;;;4086709;29;20055;-82
2024/03/12 11:20:07;;;;;;;7.30;3.65;;;9.00;91.70;;;;;;4091249;29;20056;-85
2024/03/12 11:22:11;;;;;;;7.80;4.18;;;8.90;91.80;;;;;;4090751;29;20055;-80
2024/03/12 11:24:12;;;;;;;8.15;3.65;;;8.90;92.00;;;;;;4085706;29;20062;-82
2024/03/12 11:26:15;;;;;;;7.50;4.22;;;8.90;92.00;;;;;;4086082;29;20170;-82
2024/03/12 11:28:20;;;;;;;7.38;3.83;;;8.90;92.00;;;;;;4086572;29;20391;-83
2024/03/12 11:30:29;;;;;;;7.93;3.85;;;8.90;92.10;;;;;;4091531;29;20500;-81
2024/03/12 11:32:33;;;;;;;6.93;3.55;;;9.00;92.20;;;;;;4090521;29;20432;-81
2024/03/12 11:34:36;;;;;;;8.82;4.30;;;9.00;91.90;;;;;;4086100;29;20085;-83
2024/03/12 11:36:46;;;;;;;7.97;4.20;;;9.10;91.90;;;;;;4086142;29;20059;-83
2024/03/12 11:38:49;;;;;;;7.03;3.70;;;9.20;91.80;;;;;;4083578;29;20077;-83
2024/03/12 11:40:51;;;;;;;6.28;3.20;;;9.10;91.80;;;;;;4075608;29;20425;-82
2024/03/12 11:42:54;;;;;;;7.70;3.80;;;9.00;91.90;;;;;;4069759;29;20054;-82
2024/03/12 11:44:56;;;;;;;6.82;3.40;;;9.10;91.90;;;;;;4068220;29;20462;-80
2024/03/12 11:47:00;;;;;;;6.30;3.15;;;9.10;91.70;;;;;;4068467;29;20115;-80
2024/03/12 11:49:06;;;;;;;5.78;2.95;;;8.90;91.90;;;;;;4068623;29;20115;-81
2024/03/12 11:51:11;;;;;;;;;;;8.90;92.00;;;;;;4070483;29;20154;-81
2024/03/12 11:53:14;;;;;;;;;;;8.90;92.10;;;;;;4071151;29;19923;-82
2024/03/12 11:56:05;;;;;;;5.75;2.05;;;9.00;92.10;;;;;;4069787;29;20052;-82
2024/03/12 11:58:06;;;;;;;4.95;2.10;;;8.90;91.40;;;;;;4069323;29;20056;-83
2024/03/12 12:00:11;;;;;;;5.45;2.42;;;8.90;91.30;;;;;;4069715;29;20092;-82
2024/03/12 12:02:15;;;;;;;5.18;2.17;;;8.90;91.60;;;;;;4069751;29;20063;-82
2024/03/12 12:04:18;;;;;;;5.18;2.03;;;9.00;91.50;;;;;;4068213;29;20363;-81
2024/03/12 12:06:19;;;;;;;4.53;2.05;;;9.00;91.30;;;;;;4069909;29;20052;-82
2024/03/12 12:08:21;;;;;;;4.80;2.40;;;9.00;91.20;;;;;;4084726;29;20724;-83
2024/03/12 12:10:23;;;;;;;5.43;2.40;;;9.00;91.30;;;;;;4085234;29;20055;-82
2024/03/12 12:12:28;;;;;;;4.32;2.15;;;9.00;91.40;;;;;;4085078;29;20494;-81
2024/03/12 12:14:33;;;;;;;5.47;2.33;;;9.00;91.30;;;;;;4084985;29;20126;-80
2024/03/12 12:16:36;;;;;;;5.23;2.53;;;9.00;91.80;;;;;;4085257;29;20556;-82
2024/03/12 12:18:38;;;;;;;4.60;2.13;;;9.00;91.60;;;;;;4085221;29;20315;-82
2024/03/12 12:20:42;;;;;;;4.43;2.15;;;9.00;91.50;;;;;;4086395;29;20553;-82
2024/03/12 12:22:45;;;;;;;4.47;2.05;;;9.00;91.40;;;;;;4085956;29;20054;-84
2024/03/12 12:24:47;;;;;;;4.90;2.25;;;9.00;91.60;;;;;;4086202;29;20055;-82
2024/03/12 12:26:50;;;;;;;5.03;2.30;;;9.00;91.70;;;;;;4085951;29;20138;-81
2024/03/12 12:28:53;;;;;;;4.95;2.25;;;9.00;91.90;;;;;;4086640;29;20062;-84
2024/03/12 12:31:00;;;;;;;4.57;2.08;;;9.00;91.70;;;;;;4085786;29;20142;-83
2024/03/12 12:33:04;;;;;;;4.82;2.28;;;9.00;91.70;;;;;;4085699;29;20062;-80
2024/03/12 12:35:10;;;;;;;4.53;2.00;;;9.00;91.70;;;;;;4086399;29;20118;-83
2024/03/12 12:37:14;;;;;;;4.38;2.20;;;8.90;91.70;;;;;;4085768;29;20489;-82
2024/03/12 12:39:16;;;;;;;3.53;1.83;;;9.00;91.50;;;;;;4082939;29;20055;-81
2024/03/12 12:41:22;;;;;;;4.38;1.95;;;9.00;91.10;;;;;;4079747;29;20059;-81
2024/03/12 12:43:23;;;;;;;3.30;1.55;;;8.90;91.20;;;;;;4069165;29;20557;-81
2024/03/12 12:45:25;;;;;;;4.15;1.58;;;8.90;91.50;;;;;;4067460;29;20052;-83
2024/03/12 12:47:28;;;;;;;4.05;1.70;;;8.90;91.70;;;;;;4069318;29;20083;-83
2024/03/12 12:49:32;;;;;;;3.17;1.35;;;8.80;91.80;;;;;;4068231;29;20048;-81
2024/03/12 12:51:37;;;;;;;3.22;1.50;;;8.70;91.90;;;;;;4069102;29;20060;-82
2024/03/12 12:53:41;;;;;;;3.55;1.50;;;8.70;92.20;;;;;;4069242;29;20064;-81
2024/03/12 12:55:44;;;;;;;3.58;1.50;;;8.70;92.20;;;;;;4069112;29;20056;-83
2024/03/12 12:57:45;;;;;;;3.03;1.48;;;8.70;93.00;;;;;;4095336;29;20066;-82
2024/03/12 12:59:49;;;;;;;2.72;1.25;;;8.70;93.40;;;;;;4091415;29;20126;-81
2024/03/12 13:01:51;;;;;;;3.28;1.30;;;8.70;93.30;;;;;;4084808;29;20409;-81
2024/03/12 13:03:53;;;;;;;2.83;1.10;;;8.80;93.70;;;;;;4084541;29;20048;-81
2024/03/12 13:06:15;;;;;;;3.00;1.20;;;8.70;94.20;;;;;;4084014;29;20071;-82
2024/03/12 13:08:22;;;;;;;2.90;1.40;;;8.60;95.00;;;;;;4084348;29;20070;-79
2024/03/12 13:10:26;;;;;;;2.75;1.17;;;8.40;95.30;;;;;;4083981;29;20134;-82
2024/03/12 13:12:28;;;;;;;3.25;1.45;;;8.40;95.50;;;;;;4084141;29;20056;-80
2024/03/12 13:14:31;;;;;;;2.78;1.20;;;8.40;95.60;;;;;;4084363;29;20485;-82
2024/03/12 13:16:33;;;;;;;3.88;1.38;;;8.50;95.50;;;;;;4084345;29;20051;-82
2024/03/12 13:18:35;;;;;;;3.80;1.45;;;8.30;95.90;;;;;;4084291;29;20094;-81
2024/03/12 13:20:37;;;;;;;4.65;1.80;;;8.30;96.10;;;;;;4084502;29;20055;-79
2024/03/12 13:22:39;;;;;;;4.25;1.60;;;8.30;96.00;;;;;;4084400;29;20047;-82
2024/03/12 13:24:43;;;;;;;3.45;1.38;;;8.40;96.00;;;;;;4085022;29;20386;-83
2024/03/12 13:26:47;;;;;;;3.45;1.40;;;8.50;95.70;;;;;;4087843;29;20055;-81
2024/03/12 13:28:53;;;;;;;3.83;1.45;;;8.60;95.30;;;;;;4086847;29;20059;-83
2024/03/12 13:30:56;;;;;;;2.97;1.40;;;8.70;95.20;;;;;;4084510;29;20056;-82
2024/03/12 13:32:58;;;;;;;7.82;3.35;;;8.80;94.90;;;;;;4084006;29;20416;-82
2024/03/12 13:35:00;;;;;;;5.30;2.60;;;8.90;94.60;;;;;;4083720;29;20752;-81
2024/03/12 13:37:06;;;;;;;4.30;2.13;;;9.00;94.00;;;;;;4083641;29;20051;-83
2024/03/12 13:39:07;;;;;;;5.43;2.20;;;9.20;93.40;;;;;;4082716;29;20055;-83
2024/03/12 13:41:10;;;;;;;7.15;3.63;;;9.40;93.00;;;;;;4085168;29;20058;-81
2024/03/12 13:43:12;;;;;;;5.38;2.50;;;9.60;92.70;;;;;;4083248;29;20055;-84
2024/03/12 13:45:14;;;;;;;4.50;2.08;;;9.90;92.00;;;;;;4083278;29;20106;-82
2024/03/12 13:47:18;;;;;;;5.07;2.65;;;10.00;91.20;;;;;;4084228;29;20473;-82
2024/03/12 13:49:22;;;;;;;7.78;3.42;;;10.00;90.80;;;;;;4084618;29;20047;-78
2024/03/12 13:51:24;;;;;;;6.75;3.25;;;10.10;90.10;;;;;;4083940;29;20454;-80
2024/03/12 13:53:27;;;;;;;7.38;3.85;;;10.10;89.20;;;;;;4083655;29;20056;-79
2024/03/12 13:55:29;;;;;;;7.97;4.05;;;10.00;89.10;;;;;;4083407;29;20071;-78
2024/03/12 13:57:32;;;;;;;9.55;4.40;;;9.90;88.70;;;;;;4083094;29;20158;-77
2024/03/12 13:59:36;;;;;;;8.75;4.75;;;9.90;88.30;;;;;;4083100;29;20083;-79
2024/03/12 14:01:37;;;;;;;8.60;4.85;;;10.00;87.80;;;;;;4083326;29;20094;-78